createdAt,value
2022-10-06T00:03:32.134Z,90
2022-10-06T00:09:12.430Z,94
2022-10-06T00:14:53.969Z,92
2022-10-06T00:20:34.379Z,100
2022-10-06T00:26:14.811Z,90
2022-10-06T00:31:55.264Z,90
2022-10-06T00:37:35.563Z,90
2022-10-06T00:43:16.426Z,98
2022-10-06T00:48:57.338Z,106
2022-10-06T00:54:37.567Z,90
2022-10-06T01:00:17.872Z,90
2022-10-06T01:05:58.406Z,96
2022-10-06T01:22:59.515Z,90
2022-10-06T01:28:40.911Z,90
2022-10-06T01:34:21.628Z,106
2022-10-06T01:40:02.489Z,98
2022-10-06T01:51:23.100Z,94
2022-10-06T01:57:03.782Z,92
2022-10-06T02:02:44.200Z,102
2022-10-06T02:08:24.399Z,106
2022-10-06T02:14:04.701Z,90
2022-10-06T02:19:44.848Z,94
2022-10-06T02:31:05.936Z,100
2022-10-06T02:36:46.382Z,98
2022-10-06T02:42:26.479Z,98
2022-10-06T02:48:06.712Z,96
2022-10-06T02:53:46.841Z,98
2022-10-06T02:59:26.776Z,102
2022-10-06T03:10:47.164Z,102
2022-10-06T03:16:28.274Z,102
2022-10-06T03:22:08.992Z,94
2022-10-06T03:27:49.238Z,84
2022-10-06T03:33:29.830Z,94
2022-10-06T03:39:09.947Z,98
2022-10-06T03:44:50.386Z,88
2022-10-06T03:50:31.134Z,104
2022-10-06T03:56:11.798Z,106
2022-10-06T04:01:52.118Z,104
2022-10-06T04:07:32.347Z,90
2022-10-06T04:13:12.969Z,94
2022-10-06T04:30:14.700Z,90
2022-10-06T04:41:35.004Z,100
2022-10-06T04:47:16.222Z,94
2022-10-06T04:52:56.539Z,90
2022-10-06T04:58:36.641Z,94
2022-10-06T05:04:17.484Z,86
2022-10-06T05:09:57.827Z,94
2022-10-06T05:15:39.376Z,100
2022-10-06T05:21:19.856Z,96
2022-10-06T05:27:02.653Z,86
2022-10-06T05:32:43.109Z,90
2022-10-06T05:38:23.469Z,102
2022-10-06T05:44:03.289Z,98
2022-10-06T05:49:43.544Z,94
2022-10-06T05:55:24.442Z,90
2022-10-06T06:06:44.887Z,86
2022-10-06T06:23:47.221Z,90
2022-10-06T06:29:31.780Z,104
2022-10-06T06:35:12.363Z,90
2022-10-06T06:40:52.983Z,104
2022-10-06T06:52:14.677Z,88
2022-10-06T06:57:54.898Z,98
2022-10-06T07:04:00.008Z,106
2022-10-06T07:09:40.468Z,102
2022-10-06T07:15:20.789Z,90
2022-10-06T07:21:01.463Z,102
2022-10-06T07:26:41.802Z,102
2022-10-06T07:32:22.192Z,104
2022-10-06T07:38:02.931Z,106
2022-10-06T07:43:46.634Z,112
2022-10-06T07:49:27.050Z,108
2022-10-06T07:55:11.115Z,98
2022-10-06T08:17:52.938Z,98
2022-10-06T08:23:34.795Z,76
2022-10-06T08:29:15.012Z,74
2022-10-06T08:34:59.226Z,104
2022-10-06T08:40:39.440Z,88
2022-10-06T08:46:25.691Z,36
2022-10-06T08:52:06.061Z,20
2022-10-06T08:57:46.311Z,18
2022-10-06T09:03:26.536Z,18
2022-10-06T09:09:06.484Z,30
2022-10-06T09:14:49.233Z,30
2022-10-06T09:20:29.625Z,16
2022-10-06T09:26:12.403Z,22
2022-10-06T09:31:53.533Z,12
2022-10-06T09:37:35.751Z,10
2022-10-06T09:43:16.246Z,0
2022-10-06T09:48:56.610Z,0
2022-10-06T10:00:18.901Z,0
2022-10-06T10:11:39.485Z,0
2022-10-06T10:17:19.804Z,0
2022-10-06T10:23:02.455Z,0
2022-10-06T10:28:44.136Z,0
2022-10-06T10:34:25.595Z,0
2022-10-06T10:45:52.579Z,0
2022-10-06T10:51:35.012Z,0
2022-10-06T10:57:15.544Z,0
2022-10-06T11:02:56.762Z,0
2022-10-06T11:08:37.530Z,0
2022-10-06T11:14:17.167Z,0
2022-10-06T11:25:37.907Z,0
2022-10-06T11:31:24.386Z,2
2022-10-06T11:37:07.064Z,0
2022-10-06T11:42:50.024Z,0
2022-10-06T11:48:30.323Z,0
2022-10-06T11:54:11.347Z,0
2022-10-06T12:06:10.023Z,0
2022-10-06T12:11:50.258Z,0
2022-10-06T12:23:16.531Z,0
2022-10-06T12:28:57.450Z,0
2022-10-06T12:34:37.860Z,0
2022-10-06T12:45:48.870Z,0
2022-10-06T12:51:30.027Z,0
2022-10-06T12:57:10.626Z,0
2022-10-06T13:02:52.122Z,0
2022-10-06T13:08:32.638Z,0
2022-10-06T13:14:12.990Z,0
2022-10-06T13:19:54.568Z,0
2022-10-06T13:25:47.084Z,0
2022-10-06T13:31:31.363Z,0
2022-10-06T13:37:16.139Z,0
2022-10-06T13:42:56.843Z,0
2022-10-06T13:48:45.512Z,0
2022-10-06T13:54:28.923Z,0
2022-10-06T14:00:09.885Z,0
2022-10-06T14:11:31.024Z,4
2022-10-06T14:17:11.217Z,10
2022-10-06T14:22:51.905Z,24
2022-10-06T14:28:33.340Z,92
2022-10-06T14:34:13.267Z,88
2022-10-06T14:39:54.910Z,78
2022-10-06T14:45:35.799Z,78
2022-10-06T14:51:16.107Z,96
2022-10-06T14:56:56.189Z,84
2022-10-06T15:02:37.706Z,70
2022-10-06T15:08:18.724Z,78
2022-10-06T15:13:58.981Z,66
2022-10-06T15:19:39.588Z,90
2022-10-06T15:25:20.425Z,66
2022-10-06T15:31:01.838Z,78
2022-10-06T15:36:42.360Z,88
2022-10-06T15:42:22.965Z,90
2022-10-06T15:48:03.310Z,78
2022-10-06T15:53:43.917Z,90
2022-10-06T16:05:04.494Z,72
2022-10-06T16:21:27.273Z,78
2022-10-06T16:27:07.303Z,74
2022-10-06T16:38:30.960Z,66
2022-10-06T16:44:17.215Z,72
2022-10-06T16:49:57.385Z,64
2022-10-06T16:55:37.951Z,82
2022-10-06T17:01:22.523Z,62
2022-10-06T17:07:03.417Z,66
2022-10-06T17:18:23.969Z,82
2022-10-06T17:24:04.729Z,72
2022-10-06T17:29:45.028Z,76
2022-10-06T17:35:25.263Z,94
2022-10-06T17:41:06.299Z,60
2022-10-06T17:46:46.532Z,94
2022-10-06T17:52:26.912Z,68
2022-10-06T17:58:07.367Z,114
2022-10-06T18:03:50.235Z,104
2022-10-06T18:09:30.661Z,98
2022-10-06T18:15:11.269Z,92
2022-10-06T18:20:51.498Z,90
2022-10-06T18:26:32.049Z,106
2022-10-06T18:36:18.833Z,110
2022-10-06T18:47:45.199Z,104
2022-10-06T18:53:37.201Z,106
2022-10-06T18:59:17.644Z,98
2022-10-06T19:04:58.093Z,90
2022-10-06T19:10:55.421Z,106
2022-10-06T19:16:36.493Z,98
2022-10-06T19:22:26.498Z,94
2022-10-06T19:28:22.969Z,98
2022-10-06T19:34:12.053Z,98
2022-10-06T19:40:00.527Z,104
2022-10-06T19:45:49.773Z,94
2022-10-06T19:57:20.494Z,106
2022-10-06T20:14:40.406Z,104
2022-10-06T20:20:24.463Z,90
2022-10-06T20:26:07.377Z,106
2022-10-06T20:31:47.635Z,100
2022-10-06T20:43:15.279Z,94
2022-10-06T20:48:58.795Z,112
2022-10-06T20:54:39.606Z,86
2022-10-06T21:00:23.015Z,102
2022-10-06T21:11:44.793Z,102
2022-10-06T21:23:10.159Z,92
2022-10-06T21:28:51.026Z,92
2022-10-06T21:34:30.935Z,102
2022-10-06T21:40:11.060Z,104
2022-10-06T21:46:32.349Z,94
2022-10-06T21:52:13.067Z,80
2022-10-06T21:57:53.243Z,98
2022-10-06T22:03:33.354Z,98
2022-10-06T22:09:13.502Z,94
2022-10-06T22:14:56.383Z,104
2022-10-06T22:20:36.928Z,92
2022-10-06T22:26:17.272Z,90
2022-10-06T22:31:57.973Z,82
2022-10-06T22:37:38.545Z,104
2022-10-06T22:48:58.768Z,88
2022-10-06T22:54:42.126Z,104
2022-10-06T23:00:22.917Z,90
2022-10-06T23:06:04.487Z,92
2022-10-06T23:11:45.076Z,104
2022-10-06T23:17:26.430Z,106
2022-10-06T23:40:11.778Z,86
2022-10-06T23:45:56.163Z,98
2022-10-06T23:51:40.068Z,94
2022-10-06T23:57:19.927Z,90
